Time;durP1;ratioP1;P1;durP2;ratioP2;P2;SDS_P1;SDS_P2;PMS_P1;PMS_P2;Temp;Humidity;BMP_temperature;BMP_pressure;BME280_temperature;BME280_humidity;BME280_pressure;Samples;Min_cycle;Max_cycle;Signal;HPM_P1;HPM_P2
2024/04/16 00:01:38;;;;;;;20.80;5.70;;;10.60;99.90;;;10.71;71.97;100030.41;5280360;27;20357;-68
2024/04/16 00:04:09;;;;;;;15.23;4.63;;;10.50;99.90;;;10.43;71.85;100027.34;5280564;27;19998;-68
2024/04/16 00:06:40;;;;;;;14.15;4.80;;;10.30;99.90;;;10.09;73.11;100012.94;5280658;27;20013;-68
2024/04/16 00:09:11;;;;;;;12.88;4.57;;;10.00;99.90;;;10.03;73.82;100013.03;5280614;27;20010;-68
2024/04/16 00:11:38;;;;;;;17.10;4.25;;;9.90;99.90;;;9.89;73.61;100002.69;5280492;27;20321;-68
2024/04/16 00:14:19;;;;;;;7.85;4.32;;;9.70;99.90;;;9.64;75.96;100005.75;5278230;27;20026;-68
2024/04/16 00:16:53;;;;;;;12.73;4.10;;;9.50;99.90;;;9.30;77.27;99967.50;5278601;27;20387;-68
2024/04/16 00:19:23;;;;;;;17.08;4.63;;;9.40;99.90;;;9.24;79.54;99993.97;5280453;27;20010;-68
2024/04/16 00:21:53;;;;;;;12.27;4.18;;;9.10;99.90;;;9.12;82.56;99984.47;5280398;27;20451;-68
2024/04/16 00:24:24;;;;;;;15.55;4.70;;;8.90;99.90;;;9.26;82.86;99992.19;5279185;27;20002;-68
2024/04/16 00:26:51;;;;;;;16.58;4.97;;;9.00;99.90;;;9.21;82.62;100012.50;5307143;27;20320;-68
2024/04/16 00:29:21;;;;;;;16.20;4.75;;;9.10;99.90;;;9.43;83.30;99991.06;5280076;27;20002;-68
2024/04/16 00:31:49;;;;;;;17.55;5.38;;;9.10;99.90;;;9.36;83.24;99980.63;5278546;27;19998;-68
2024/04/16 00:34:19;;;;;;;14.77;4.88;;;9.10;99.90;;;9.44;82.00;100010.44;5279864;27;19999;-68
2024/04/16 00:36:47;;;;;;;15.38;4.75;;;9.20;99.90;;;9.38;80.84;99947.16;5280197;27;20072;-68
2024/04/16 00:39:19;;;;;;;14.27;4.65;;;9.30;99.90;;;9.57;80.14;99968.00;5280172;27;20057;-68
2024/04/16 00:41:48;;;;;;;15.68;5.20;;;9.30;99.90;;;9.58;80.62;99958.31;5280793;27;20069;-68
2024/04/16 00:44:18;;;;;;;14.35;5.50;;;9.40;99.90;;;9.45;79.44;99903.94;5279757;27;20005;-68
2024/04/16 00:46:45;;;;;;;17.67;5.57;;;9.50;99.90;;;9.70;79.30;99950.19;5280050;27;20038;-68
2024/04/16 00:49:16;;;;;;;16.65;4.90;;;9.50;99.90;;;9.80;79.75;99963.22;5278168;27;19999;-69
2024/04/16 00:51:44;;;;;;;15.98;5.50;;;9.60;99.90;;;9.70;80.35;99937.88;5280325;27;20072;-68
2024/04/16 00:54:14;;;;;;;17.40;4.88;;;9.50;99.90;;;9.72;80.44;99935.19;5279644;27;20002;-69
2024/04/16 00:56:45;;;;;;;18.02;4.65;;;9.50;99.90;;;9.75;80.14;99929.88;5280605;27;20013;-68
2024/04/16 00:59:15;;;;;;;15.23;5.10;;;9.60;99.90;;;9.75;80.48;99929.88;5280477;27;20014;-68
2024/04/16 01:01:43;;;;;;;12.55;4.70;;;9.50;99.90;;;9.62;80.16;99938.91;5280171;27;20069;-68
2024/04/16 01:04:13;;;;;;;14.23;5.00;;;9.40;99.90;;;9.51;80.96;99933.78;5278388;27;19998;-68
2024/04/16 01:06:41;;;;;;;13.20;5.18;;;9.30;99.90;;;9.48;82.00;99935.59;5280061;27;19998;-68
2024/04/16 01:09:14;;;;;;;12.48;4.68;;;9.30;99.90;;;9.51;83.29;99935.53;5280108;27;20308;-68
2024/04/16 01:11:46;;;;;;;17.55;5.03;;;9.30;99.90;;;9.45;84.20;99919.78;5280175;27;20440;-68
2024/04/16 01:14:16;;;;;;;17.08;4.95;;;9.40;99.90;;;9.53;83.50;99942.53;5279633;27;20376;-68
2024/04/16 01:16:44;;;;;;;;;;;9.40;99.90;;;9.36;85.48;99952.47;5280266;27;20403;-68
2024/04/16 01:19:14;;;;;;;12.07;4.40;;;9.20;99.90;;;8.66;87.53;99980.63;5279021;27;19927;-69
2024/04/16 01:21:41;;;;;;;13.40;4.68;;;8.60;99.90;;;8.04;90.16;99955.75;5280102;27;20035;-69
2024/04/16 01:24:15;;;;;;;15.65;4.80;;;8.10;99.90;;;7.62;93.73;99974.53;5279248;27;20459;-68
2024/04/16 01:26:43;;;;;;;13.40;4.72;;;7.60;99.90;;;7.76;95.68;99962.13;5279517;27;20009;-67
2024/04/16 01:29:13;;;;;;;15.02;4.10;;;7.50;99.90;;;7.70;96.61;99935.88;5278906;27;20010;-67
2024/04/16 01:31:41;;;;;;;12.63;4.63;;;7.60;99.90;;;7.63;97.34;99934.16;5279496;27;20016;-67
2024/04/16 01:34:11;;;;;;;16.02;5.03;;;7.60;99.90;;;7.75;98.68;99955.13;5277573;27;20006;-68
2024/04/16 01:36:38;;;;;;;13.30;4.63;;;7.60;99.90;;;7.51;99.09;99952.66;5279985;27;20006;-68
2024/04/16 01:39:09;;;;;;;10.50;4.10;;;7.40;99.90;;;7.55;99.93;99946.50;5278986;27;20007;-68
2024/04/16 01:41:39;;;;;;;10.80;4.47;;;7.30;99.90;;;7.50;99.83;99921.09;5279379;27;20010;-68
2024/04/16 01:44:09;;;;;;;19.13;4.60;;;7.40;99.90;;;7.95;99.11;99941.81;5277169;27;20323;-67
2024/04/16 01:46:37;;;;;;;11.05;4.60;;;7.70;99.90;;;7.89;98.17;99916.41;5279201;27;19998;-68
2024/04/16 01:49:07;;;;;;;12.60;4.70;;;7.80;99.90;;;8.04;97.86;99950.50;5279108;27;19998;-68
2024/04/16 01:51:34;;;;;;;10.30;4.22;;;7.80;99.90;;;8.07;98.45;99955.72;5280024;27;20030;-68
2024/04/16 01:54:04;;;;;;;8.77;4.00;;;7.80;99.90;;;8.17;99.02;99946.84;5279104;27;20011;-67
2024/04/16 01:56:32;;;;;;;11.65;4.40;;;7.90;99.90;;;8.30;99.17;99937.13;5279049;27;20035;-68
2024/04/16 01:59:05;;;;;;;10.63;4.47;;;8.00;99.90;;;8.53;97.92;99939.50;5279619;27;19998;-68
2024/04/16 02:01:32;;;;;;;9.73;3.92;;;8.30;99.90;;;8.32;98.31;99932.69;5278960;27;20076;-68
2024/04/16 02:04:02;;;;;;;12.00;4.47;;;8.20;99.90;;;8.34;98.27;99922.13;5277106;27;20077;-68
2024/04/16 02:06:30;;;;;;;16.27;5.15;;;8.20;99.90;;;8.45;98.19;99915.88;5278834;27;20002;-68
2024/04/16 02:09:00;;;;;;;13.23;4.65;;;8.20;99.90;;;8.57;98.12;99902.56;5278551;27;20002;-67
2024/04/16 02:11:27;;;;;;;24.38;6.93;;;8.30;99.90;;;8.47;96.95;99882.47;5277259;27;19998;-68
2024/04/16 02:13:57;;;;;;;13.48;5.22;;;8.30;99.90;;;8.49;95.67;99895.63;5278304;27;19999;-68
2024/04/16 02:16:28;;;;;;;18.10;6.03;;;8.40;99.90;;;8.82;94.46;99889.94;5277496;27;20018;-68
2024/04/16 02:18:58;;;;;;;25.85;6.25;;;8.60;99.90;;;8.95;93.82;99891.50;5278472;27;20335;-68
2024/04/16 02:21:25;;;;;;;17.70;5.40;;;8.70;99.90;;;9.03;93.07;99894.91;5279180;27;19998;-68
2024/04/16 02:23:55;;;;;;;16.77;5.68;;;8.80;99.90;;;9.12;92.22;99886.84;5278542;27;19998;-68
2024/04/16 02:26:23;;;;;;;16.40;5.13;;;8.90;99.90;;;8.47;91.10;99755.09;5278581;27;20339;-68
2024/04/16 02:28:53;;;;;;;12.55;4.80;;;9.00;99.90;;;9.13;92.41;99871.91;5276724;27;20462;-68
2024/04/16 02:31:20;;;;;;;16.65;5.75;;;8.90;99.90;;;9.19;93.89;99875.34;5278607;27;19998;-68
2024/04/16 02:33:54;;;;;;;20.10;5.78;;;9.00;99.90;;;9.23;94.64;99877.03;5282042;27;20038;-68
2024/04/16 02:36:22;;;;;;;17.52;5.60;;;9.00;99.90;;;9.25;94.55;99861.19;5282192;27;20002;-68
2024/04/16 02:38:52;;;;;;;18.67;5.63;;;9.00;99.90;;;9.32;94.53;99866.34;5281746;27;19999;-68
2024/04/16 02:41:20;;;;;;;11.13;4.65;;;9.00;99.90;;;9.22;93.03;99851.53;5280488;27;20003;-68
2024/04/16 02:43:50;;;;;;;15.32;5.20;;;9.00;99.90;;;9.27;92.45;99836.50;5281663;27;20009;-68
2024/04/16 02:46:17;;;;;;;16.60;5.32;;;9.10;99.90;;;9.26;91.46;99861.16;5280233;27;20049;-68
2024/04/16 02:48:48;;;;;;;14.63;4.78;;;9.00;99.90;;;9.31;89.45;99859.31;5307941;27;20009;-68
2024/04/16 02:51:18;;;;;;;13.68;4.80;;;9.10;99.90;;;9.50;89.58;99860.78;5281593;27;20053;-68
2024/04/16 02:53:48;;;;;;;19.63;5.57;;;9.20;99.90;;;9.55;89.27;99853.66;5280303;27;19998;-68
2024/04/16 02:56:15;;;;;;;15.82;4.75;;;9.40;99.90;;;9.49;88.30;99832.63;5281640;27;20308;-68
2024/04/16 02:58:47;;;;;;;14.27;5.15;;;9.30;99.90;;;9.49;88.66;99837.03;5281489;27;20556;-68
2024/04/16 03:01:14;;;;;;;18.67;5.40;;;9.30;99.90;;;9.42;88.75;99833.63;5281861;27;20010;-68
2024/04/16 03:03:44;;;;;;;18.33;5.55;;;9.30;99.90;;;9.55;88.66;99831.66;5279605;27;19998;-68
2024/04/16 03:06:12;;;;;;;20.45;5.90;;;9.40;99.90;;;9.62;88.37;99828.88;5281410;27;19999;-67
2024/04/16 03:08:45;;;;;;;15.25;5.22;;;9.40;99.90;;;9.57;89.03;99820.19;5281094;27;20073;-67
2024/04/16 03:11:12;;;;;;;27.48;5.93;;;9.40;99.90;;;9.62;89.84;99818.31;5281577;27;20375;-68
2024/04/16 03:13:43;;;;;;;16.20;5.72;;;9.40;99.90;;;9.68;90.71;99820.84;5280851;27;19998;-67
2024/04/16 03:16:10;;;;;;;16.33;5.78;;;9.50;99.90;;;9.47;91.39;99812.44;5280209;27;19998;-68
2024/04/16 03:18:40;;;;;;;13.70;5.10;;;9.30;99.90;;;9.32;91.98;99800.38;5281071;27;19998;-68
2024/04/16 03:21:08;;;;;;;13.68;4.40;;;9.20;99.90;;;9.21;89.99;99801.44;5281488;27;20440;-68
2024/04/16 03:23:38;;;;;;;8.77;4.68;;;9.10;99.90;;;9.24;89.50;99810.19;5279919;27;20000;-68
2024/04/16 03:26:09;;;;;;;10.70;4.63;;;9.00;99.90;;;9.32;89.93;99792.47;5280852;27;20459;-68
2024/04/16 03:28:39;;;;;;;13.32;5.05;;;9.20;99.90;;;9.30;91.86;99799.53;5281193;27;20456;-68
2024/04/16 03:31:07;;;;;;;12.45;4.53;;;9.10;99.90;;;9.15;91.05;99775.16;5281114;27;19998;-68
2024/04/16 03:33:37;;;;;;;11.82;4.35;;;9.10;99.90;;;9.14;91.00;99790.13;5280922;27;20034;-68
2024/04/16 03:36:06;;;;;;;16.73;4.50;;;9.10;99.90;;;9.12;92.79;99805.09;5281626;27;20013;-67
2024/04/16 03:38:36;;;;;;;12.32;4.43;;;9.00;99.90;;;8.91;93.71;99805.41;5280674;27;20009;-68
2024/04/16 03:41:11;;;;;;;10.52;4.57;;;8.80;99.90;;;8.76;95.65;99792.47;5280905;27;20008;-67
2024/04/16 03:43:45;;;;;;;12.82;4.93;;;8.60;99.90;;;8.79;95.92;99810.88;5280270;27;19998;-68
2024/04/16 03:46:15;;;;;;;15.20;4.88;;;8.60;99.90;;;8.76;96.85;99809.16;5281679;27;20003;-67
2024/04/16 03:48:43;;;;;;;12.25;4.45;;;8.60;99.90;;;8.65;97.53;99791.75;5280833;27;20017;-67
2024/04/16 03:51:13;;;;;;;10.88;4.28;;;8.50;99.90;;;8.67;98.37;99798.72;5279050;27;19999;-68
2024/04/16 03:53:40;;;;;;;13.60;4.28;;;8.50;99.90;;;8.68;97.97;99782.03;5280772;27;19998;-68
2024/04/16 03:56:13;;;;;;;12.20;4.55;;;8.50;99.90;;;8.55;97.85;99769.06;5281142;27;20013;-67
2024/04/16 03:58:53;;;;;;;13.52;3.97;;;8.40;99.90;;;8.54;98.06;99770.81;5281010;27;20328;-68
2024/04/16 04:01:24;;;;;;;;;;;8.40;99.90;;;8.51;99.22;99770.88;5281472;27;20308;-68
2024/04/16 04:03:54;;;;;;;13.82;4.55;;;8.40;99.90;;;8.50;100.00;99755.06;5278606;27;20249;-67
2024/04/16 04:06:24;;;;;;;16.13;5.13;;;8.40;99.90;;;8.38;100.00;99744.72;5281240;27;20347;-67
2024/04/16 04:08:51;;;;;;;12.85;4.18;;;8.40;99.90;;;8.27;100.00;99749.22;5281204;27;20319;-67
2024/04/16 04:11:24;;;;;;;16.92;4.68;;;8.30;99.90;;;8.38;100.00;99756.09;5281149;27;20013;-67
2024/04/16 04:13:52;;;;;;;13.45;4.60;;;8.20;99.90;;;8.47;100.00;99766.53;5280797;27;20009;-67
2024/04/16 04:16:23;;;;;;;15.77;5.20;;;8.30;99.90;;;8.62;100.00;99723.25;5280364;27;20009;-67
2024/04/16 04:18:52;;;;;;;21.25;5.43;;;8.40;99.90;;;8.67;100.00;99737.25;5280453;27;20022;-67
2024/04/16 04:21:22;;;;;;;23.23;5.22;;;8.50;99.90;;;8.70;100.00;99739.84;5280349;27;20035;-67
2024/04/16 04:23:50;;;;;;;23.55;5.43;;;8.50;99.90;;;8.82;100.00;99726.47;5280430;27;20010;-67
2024/04/16 04:26:20;;;;;;;24.85;5.45;;;8.60;99.90;;;8.89;100.00;99720.19;5280384;27;19998;-67
2024/04/16 04:28:50;;;;;;;21.08;5.50;;;8.70;99.90;;;8.84;100.00;99719.41;5281014;27;20073;-67
2024/04/16 04:31:21;;;;;;;23.73;5.63;;;8.70;99.90;;;8.70;100.00;99685.38;5280860;27;19999;-67
2024/04/16 04:33:50;;;;;;;31.02;6.18;;;8.70;99.90;;;8.81;100.00;99722.06;5280115;27;20002;-67
2024/04/16 04:36:20;;;;;;;28.25;6.03;;;8.70;99.90;;;8.85;100.00;99723.78;5280425;27;20005;-67
2024/04/16 04:38:47;;;;;;;26.63;6.32;;;8.60;99.90;;;8.73;100.00;99705.53;5279876;27;20013;-67
2024/04/16 04:41:18;;;;;;;33.90;7.28;;;8.70;99.90;;;9.07;100.00;99746.28;5280447;27;20013;-67
2024/04/16 04:43:46;;;;;;;33.78;6.82;;;8.80;99.90;;;9.14;100.00;99731.22;5278656;27;20073;-67
2024/04/16 04:46:19;;;;;;;28.73;7.07;;;8.90;99.90;;;9.18;100.00;99732.91;5279853;27;20013;-67
2024/04/16 04:48:46;;;;;;;30.05;7.38;;;9.00;99.90;;;9.18;100.00;99733.78;5280144;27;19998;-67
2024/04/16 04:51:16;;;;;;;25.55;6.70;;;8.90;99.90;;;9.28;100.00;99753.81;5278348;27;19999;-67
2024/04/16 04:53:44;;;;;;;23.50;6.38;;;9.10;99.90;;;9.48;100.00;99743.81;5279737;27;19998;-67
2024/04/16 04:56:14;;;;;;;21.17;5.93;;;9.20;99.90;;;9.57;100.00;99756.81;5278736;27;20002;-67
2024/04/16 04:58:41;;;;;;;25.45;6.10;;;9.30;99.90;;;9.53;100.00;99733.16;5278124;27;19999;-67
2024/04/16 05:01:12;;;;;;;26.75;6.85;;;9.40;99.90;;;9.65;100.00;99722.34;5279665;27;19999;-66
2024/04/16 05:03:42;;;;;;;27.80;6.40;;;9.40;99.90;;;9.68;100.00;99736.38;5280413;27;20010;-67
2024/04/16 05:06:12;;;;;;;26.20;6.85;;;9.50;99.90;;;9.64;100.00;99753.16;5280075;27;20009;-67
2024/04/16 05:08:40;;;;;;;27.27;6.60;;;9.50;99.90;;;9.84;100.00;99768.63;5279869;27;19999;-67
2024/04/16 05:11:10;;;;;;;30.77;7.43;;;9.60;99.90;;;9.26;100.00;99659.75;5279711;27;19998;-67
2024/04/16 05:13:38;;;;;;;24.70;6.57;;;9.60;99.90;;;9.82;100.00;99788.91;5277634;27;20072;-67
2024/04/16 05:16:09;;;;;;;27.08;6.60;;;9.60;99.90;;;9.88;100.00;99771.19;5278447;27;20005;-67
2024/04/16 05:18:36;;;;;;;27.05;6.10;;;9.70;99.90;;;9.96;99.99;99800.97;5279543;27;20013;-68
2024/04/16 05:21:10;;;;;;;20.73;5.95;;;9.70;99.90;;;9.82;98.97;99794.19;5277436;27;20076;-68
2024/04/16 05:23:37;;;;;;;22.27;6.22;;;9.60;99.90;;;9.89;99.13;99799.31;5279575;27;20358;-68
2024/04/16 05:26:07;;;;;;;35.53;6.15;;;9.70;99.90;;;9.86;99.46;99791.47;5279361;27;20448;-68
2024/04/16 05:28:35;;;;;;;29.60;6.28;;;9.70;99.90;;;9.70;99.99;99779.44;5279414;27;20077;-68
2024/04/16 05:31:06;;;;;;;26.77;6.55;;;9.60;99.90;;;9.79;100.00;99805.66;5279084;27;20010;-67
2024/04/16 05:33:33;;;;;;;;;;;9.60;99.90;;;9.82;100.00;99813.56;5279927;27;19999;-67
2024/04/16 05:36:03;;;;;;;32.85;7.47;;;9.60;99.90;;;9.79;100.00;99818.88;5279250;27;19947;-67
2024/04/16 05:38:36;;;;;;;30.77;7.15;;;9.60;99.90;;;9.83;100.00;99823.22;5279396;27;19999;-66
2024/04/16 05:41:06;;;;;;;;;;;9.60;99.90;;;9.79;100.00;99834.72;5280044;27;20009;-67
2024/04/16 05:43:34;;;;;;;21.40;5.57;;;9.60;99.90;;;9.83;99.23;99827.66;5279268;27;19930;-67
2024/04/16 05:46:05;;;;;;;19.40;5.97;;;9.60;99.90;;;9.94;99.04;99852.06;5278775;27;20009;-68
2024/04/16 05:48:33;;;;;;;20.00;5.65;;;9.70;99.90;;;9.61;99.45;99806.03;5279684;27;19998;-67
2024/04/16 05:51:03;;;;;;;20.88;5.70;;;9.70;99.90;;;9.87;100.00;99818.78;5278814;27;19999;-68
2024/04/16 05:53:30;;;;;;;31.98;6.88;;;9.60;99.90;;;9.92;100.00;99860.03;5278702;27;20072;-68
2024/04/16 05:56:03;;;;;;;24.42;6.05;;;9.70;99.90;;;9.91;100.00;99858.28;5278637;27;19999;-68
2024/04/16 05:58:31;;;;;;;24.00;6.88;;;9.70;99.90;;;9.94;100.00;99863.53;5278995;27;20009;-68
2024/04/16 06:01:06;;;;;;;22.30;5.72;;;9.70;99.90;;;9.90;100.00;99864.47;5278600;27;20455;-68
2024/04/16 06:03:34;;;;;;;36.08;7.25;;;9.70;99.90;;;9.06;100.00;99739.25;5277085;27;20013;-68
2024/04/16 06:06:04;;;;;;;34.58;8.23;;;9.60;99.90;;;9.88;100.00;99879.47;5279538;27;19998;-68
2024/04/16 06:08:31;;;;;;;39.13;6.95;;;9.60;99.90;;;9.88;100.00;99876.84;5283140;27;20439;-68
2024/04/16 06:11:04;;;;;;;26.67;6.40;;;9.60;99.90;;;9.67;100.00;99877.22;5280371;27;19998;-68
2024/04/16 06:13:32;;;;;;;24.40;6.20;;;9.50;99.90;;;9.71;100.00;99881.53;5280327;27;20129;-67
2024/04/16 06:16:05;;;;;;;27.63;6.97;;;9.50;99.90;;;9.85;100.00;99876.03;5281901;27;20463;-68
2024/04/16 06:18:33;;;;;;;35.92;7.35;;;9.60;99.90;;;9.95;100.00;99882.84;5282448;27;20014;-68
2024/04/16 06:21:03;;;;;;;34.22;7.80;;;9.70;99.90;;;9.95;100.00;99853.81;5282194;27;19998;-68
2024/04/16 06:23:30;;;;;;;32.47;7.50;;;9.80;99.90;;;10.12;100.00;99878.19;5282446;27;20073;-68
2024/04/16 06:26:08;;;;;;;30.80;6.95;;;9.90;99.90;;;10.23;100.00;99877.97;5281867;27;20002;-68
2024/04/16 06:28:35;;;;;;;31.98;6.90;;;10.00;99.90;;;10.18;98.63;99877.22;5281924;27;20002;-68
2024/04/16 06:31:06;;;;;;;23.35;6.30;;;10.00;99.90;;;10.23;97.90;99880.63;5279964;27;20448;-68
2024/04/16 06:33:36;;;;;;;32.63;7.03;;;10.00;99.90;;;10.34;97.99;99897.13;5281768;27;20038;-68
2024/04/16 06:36:07;;;;;;;34.08;7.13;;;10.10;99.90;;;10.33;99.54;99908.63;5281937;27;20017;-68
2024/04/16 06:38:35;;;;;;;32.38;8.05;;;10.10;99.90;;;10.34;100.00;99926.22;5281717;27;20010;-68
2024/04/16 06:41:08;;;;;;;26.77;6.55;;;10.10;99.90;;;10.25;100.00;99927.28;5281338;27;20010;-67
2024/04/16 06:43:35;;;;;;;29.27;6.20;;;10.10;99.90;;;10.19;100.00;99937.06;5282108;27;20002;-65
2024/04/16 06:46:06;;;;;;;24.73;6.15;;;10.00;99.90;;;10.19;99.81;99937.94;5281104;27;20010;-65
2024/04/16 06:48:33;;;;;;;;;;;10.00;99.90;;;10.29;98.84;99917.50;5282768;27;20030;-65
2024/04/16 06:51:04;;;;;;;25.02;5.95;;;10.10;99.90;;;10.31;98.07;99924.53;5281560;27;20408;-65
2024/04/16 06:53:32;;;;;;;;;;;10.20;99.90;;;10.51;97.95;99940.84;5282190;27;20009;-70
2024/04/16 06:56:03;;;;;;;30.27;5.82;;;10.30;99.90;;;10.36;98.04;99942.91;5281360;27;20364;-68
2024/04/16 06:58:33;;;;;;;34.03;6.85;;;10.20;99.90;;;9.75;97.98;99825.16;5279607;27;19998;-68
2024/04/16 07:01:03;;;;;;;;;;;10.30;99.90;;;10.52;98.28;99931.16;5282223;27;19999;-68
2024/04/16 07:03:31;;;;;;;24.02;6.53;;;10.30;99.90;;;10.35;98.78;99957.03;5281434;27;19927;-66
2024/04/16 07:06:01;;;;;;;21.05;6.32;;;10.10;99.90;;;10.35;99.33;99970.25;5279446;27;20006;-66
2024/04/16 07:08:29;;;;;;;19.08;5.93;;;10.10;99.90;;;10.32;97.76;99983.50;5281630;27;19998;-69
2024/04/16 07:10:59;;;;;;;16.50;5.10;;;10.10;99.90;;;10.36;98.40;99979.91;5281350;27;20391;-68
2024/04/16 07:13:27;;;;;;;14.95;5.07;;;10.10;99.90;;;10.11;99.21;99983.88;5281104;27;20006;-67
2024/04/16 07:16:00;;;;;;;18.52;5.03;;;9.90;99.90;;;9.99;100.00;99988.44;5281141;27;20030;-67
2024/04/16 07:18:27;;;;;;;28.65;6.15;;;9.80;99.90;;;10.13;100.00;99953.03;5280814;27;20065;-67
2024/04/16 07:20:58;;;;;;;24.25;5.82;;;10.00;99.90;;;9.60;100.00;99874.69;5280871;27;20463;-67
2024/04/16 07:23:25;;;;;;;29.42;6.88;;;10.00;99.90;;;10.38;100.00;100007.19;5279355;27;20034;-68
2024/04/16 07:25:55;;;;;;;23.73;6.40;;;10.10;99.90;;;10.34;100.00;99957.94;5281082;27;20010;-68
2024/04/16 07:28:23;;;;;;;23.98;6.65;;;10.20;99.90;;;10.61;100.00;100002.38;5279705;27;19998;-68
2024/04/16 07:30:53;;;;;;;27.80;6.10;;;10.30;99.90;;;10.69;98.87;99990.75;5281039;27;19998;-68
2024/04/16 07:33:37;;;;;;;24.13;6.10;;;10.40;99.90;;;10.83;96.72;99996.66;5280834;27;20008;-69
2024/04/16 07:36:09;;;;;;;19.10;5.13;;;10.60;99.90;;;10.94;96.32;99991.16;5281355;27;20072;-68
2024/04/16 07:38:38;;;;;;;25.58;5.78;;;10.70;99.90;;;11.02;97.00;100010.38;5280874;27;19998;-69
2024/04/16 07:41:08;;;;;;;25.27;6.55;;;10.70;99.90;;;10.57;98.98;99972.47;5279117;27;20327;-68
2024/04/16 07:43:36;;;;;;;25.10;5.97;;;10.70;99.90;;;10.73;98.42;99999.50;5281236;27;19998;-67
2024/04/16 07:46:06;;;;;;;22.02;6.03;;;10.50;99.90;;;10.73;97.77;100021.53;5280784;27;20010;-67
2024/04/16 07:48:37;;;;;;;24.67;6.47;;;10.50;99.90;;;10.75;97.28;100024.16;5280930;27;20010;-68
2024/04/16 07:51:07;;;;;;;22.20;6.03;;;10.50;99.90;;;10.74;96.68;100033.00;5280472;27;20411;-67
2024/04/16 07:53:35;;;;;;;25.88;5.95;;;10.50;99.90;;;10.58;96.57;99994.50;5281294;27;19998;-68
2024/04/16 07:56:05;;;;;;;24.85;7.00;;;10.50;99.90;;;10.70;96.25;100028.66;5278855;27;20444;-68
2024/04/16 07:58:33;;;;;;;28.90;6.57;;;10.40;99.90;;;10.65;96.62;100041.06;5280985;27;20030;-68
2024/04/16 08:01:03;;;;;;;24.40;6.00;;;10.40;99.90;;;10.76;96.93;100041.78;5280549;27;20006;-68
2024/04/16 08:03:31;;;;;;;26.42;6.93;;;10.50;99.90;;;10.80;97.33;100043.47;5281024;27;19998;-68
2024/04/16 08:06:03;;;;;;;31.80;7.55;;;10.50;99.90;;;10.72;97.41;100040.09;5305994;27;19998;-67
2024/04/16 08:08:32;;;;;;;28.73;7.85;;;10.50;99.90;;;10.58;98.12;100026.22;5280531;27;20002;-68
2024/04/16 08:11:11;;;;;;;33.22;7.40;;;10.50;99.90;;;10.62;97.84;100036.75;5280511;27;20002;-68
2024/04/16 08:13:40;;;;;;;30.05;6.53;;;10.50;99.90;;;10.73;97.37;100065.63;5280412;27;19998;-67
2024/04/16 08:16:11;;;;;;;25.48;6.50;;;10.50;99.90;;;10.78;97.65;100055.84;5280779;27;20006;-68
2024/04/16 08:18:40;;;;;;;24.77;6.43;;;10.60;99.90;;;10.58;96.18;100058.84;5280369;27;20011;-68
2024/04/16 08:21:12;;;;;;;22.98;6.30;;;10.50;99.90;;;10.72;97.02;100082.41;5280108;27;19999;-68
2024/04/16 08:23:40;;;;;;;21.50;6.35;;;10.50;99.90;;;10.72;96.26;100074.47;5280352;27;20010;-68
2024/04/16 08:26:10;;;;;;;28.45;6.80;;;10.50;99.90;;;10.66;95.62;100070.16;5279954;27;20090;-68
2024/04/16 08:28:40;;;;;;;30.75;7.28;;;10.50;99.90;;;10.82;95.83;100083.97;5280792;27;20125;-68
2024/04/16 08:31:10;;;;;;;27.90;7.43;;;10.50;99.90;;;10.72;96.13;100075.31;5280243;27;20002;-68
2024/04/16 08:33:39;;;;;;;23.00;6.28;;;10.60;99.90;;;10.79;95.58;100099.91;5280363;27;20013;-68
2024/04/16 08:36:12;;;;;;;21.70;5.80;;;10.60;99.90;;;10.90;94.31;100104.09;5278323;27;19998;-68
2024/04/16 08:38:40;;;;;;;23.05;6.25;;;10.60;99.90;;;10.75;93.75;100087.63;5280191;27;19998;-68
2024/04/16 08:41:10;;;;;;;23.38;5.75;;;10.70;99.90;;;11.03;94.40;100102.13;5306951;27;20005;-68
2024/04/16 08:43:40;;;;;;;18.20;5.90;;;10.70;99.90;;;10.91;93.75;100102.34;5280182;27;20076;-68
2024/04/16 08:46:11;;;;;;;22.75;6.43;;;10.70;99.90;;;10.82;95.37;100121.00;5280099;27;20006;-68
2024/04/16 08:48:40;;;;;;;26.00;6.43;;;10.60;99.90;;;10.88;96.00;100118.25;5280075;27;20002;-68
2024/04/16 08:51:17;;;;;;;21.90;6.38;;;10.60;99.90;;;10.79;96.89;100127.22;5278393;27;19998;-67
2024/04/16 08:53:47;;;;;;;23.27;6.20;;;10.50;99.90;;;10.60;97.00;100096.72;5279986;27;20088;-67
2024/04/16 08:56:17;;;;;;;21.42;5.80;;;10.60;99.90;;;10.62;95.40;100131.94;5279942;27;20006;-67
2024/04/16 08:58:45;;;;;;;21.60;5.95;;;10.50;99.90;;;10.77;94.54;100149.31;5280561;27;20301;-68
2024/04/16 09:01:18;;;;;;;22.00;6.07;;;10.50;99.90;;;10.75;94.75;100151.09;5279814;27;20023;-68
2024/04/16 09:03:49;;;;;;;17.98;6.45;;;10.50;99.90;;;10.17;94.54;100024.31;5278031;27;20022;-68
2024/04/16 09:06:24;;;;;;;21.75;6.10;;;10.60;99.90;;;10.98;94.71;100166.56;5280435;27;20053;-68
2024/04/16 09:08:53;;;;;;;24.92;5.93;;;10.70;99.90;;;10.93;95.54;100145.50;5279459;27;20333;-68
2024/04/16 09:11:38;;;;;;;24.52;6.10;;;10.70;99.90;;;11.10;95.42;100161.06;5278479;27;20412;-68
2024/04/16 09:14:07;;;;;;;33.95;6.85;;;10.80;99.90;;;10.99;96.37;100149.81;5279330;27;20008;-67
2024/04/16 09:16:38;;;;;;;25.42;6.93;;;10.80;99.90;;;10.64;96.22;100102.81;5278509;27;20002;-68
2024/04/16 09:19:07;;;;;;;26.35;6.47;;;10.80;99.90;;;11.04;96.30;100188.53;5279999;27;19998;-68
2024/04/16 09:21:40;;;;;;;30.55;7.05;;;10.80;99.90;;;10.50;98.11;100091.59;5279849;27;20368;-68
2024/04/16 09:24:08;;;;;;;19.40;5.90;;;10.80;99.90;;;11.07;98.85;100185.81;5279604;27;20325;-68
2024/04/16 09:26:38;;;;;;;29.40;6.75;;;10.80;99.90;;;10.77;100.00;100212.78;5279513;27;20002;-68
2024/04/16 09:29:06;;;;;;;29.27;6.57;;;10.60;99.90;;;10.98;100.00;100223.03;5279474;27;19998;-68
2024/04/16 09:31:36;;;;;;;23.83;6.75;;;10.70;99.90;;;10.94;100.00;100221.31;5279449;27;19998;-68
2024/04/16 09:34:06;;;;;;;32.58;7.15;;;10.70;99.90;;;10.83;100.00;100228.56;5279477;27;20053;-68
2024/04/16 09:36:49;;;;;;;31.23;7.18;;;10.60;99.90;;;11.13;100.00;100235.16;5278967;27;20010;-69
2024/04/16 09:39:17;;;;;;;34.08;7.15;;;10.80;99.90;;;10.77;100.00;100241.88;5279857;27;20002;-68
2024/04/16 09:41:49;;;;;;;27.42;7.32;;;10.60;99.90;;;10.47;100.00;100214.13;5278733;27;19998;-68
2024/04/16 09:44:18;;;;;;;29.33;6.63;;;10.40;99.90;;;10.26;100.00;100213.56;5279338;27;20447;-67
2024/04/16 09:46:49;;;;;;;24.25;6.20;;;10.20;99.90;;;10.30;100.00;100192.34;5279525;27;20009;-67
2024/04/16 09:49:22;;;;;;;23.45;6.72;;;10.20;99.90;;;10.62;100.00;100263.28;5279381;27;20402;-67
2024/04/16 09:52:03;;;;;;;25.23;6.55;;;10.30;99.90;;;10.53;100.00;100242.25;5279111;27;20039;-68
2024/04/16 09:54:33;;;;;;;25.75;7.07;;;10.30;99.90;;;10.41;100.00;100253.88;5279725;27;20009;-68
2024/04/16 09:57:05;;;;;;;32.97;7.70;;;10.20;99.90;;;10.53;100.00;100258.13;5278748;27;20002;-68
2024/04/16 09:59:33;;;;;;;30.42;7.85;;;10.30;99.90;;;10.65;100.00;100250.00;5279166;27;20460;-68
2024/04/16 10:02:06;;;;;;;34.92;9.05;;;10.40;99.90;;;10.60;100.00;100252.72;5278556;27;20077;-67
2024/04/16 10:04:34;;;;;;;29.88;7.55;;;10.40;99.90;;;10.79;100.00;100270.06;5278908;27;20014;-67
2024/04/16 10:07:07;;;;;;;33.35;7.32;;;10.50;99.90;;;10.84;100.00;100275.28;5278873;27;20075;-68
2024/04/16 10:09:35;;;;;;;33.47;7.47;;;10.60;99.90;;;10.95;100.00;100281.31;5277412;27;19998;-68
2024/04/16 10:12:06;;;;;;;26.38;6.45;;;10.70;99.90;;;10.79;100.00;100272.72;5277467;27;19998;-68
2024/04/16 10:14:36;;;;;;;29.88;7.45;;;10.60;99.90;;;10.74;100.00;100271.03;5278354;27;20314;-68
2024/04/16 10:17:07;;;;;;;26.40;6.70;;;10.50;99.90;;;10.79;100.00;100298.28;5278787;27;20002;-68
2024/04/16 10:19:34;;;;;;;27.33;7.65;;;10.50;99.90;;;11.03;100.00;100294.41;5278636;27;20042;-68
2024/04/16 10:22:13;;;;;;;28.60;7.20;;;10.70;99.90;;;10.88;100.00;100258.47;5278589;27;20017;-68
2024/04/16 10:24:51;;;;;;;31.58;6.95;;;10.70;99.90;;;10.93;100.00;100298.09;5278496;27;19998;-68
2024/04/16 10:27:23;;;;;;;29.48;7.38;;;10.70;99.90;;;10.71;100.00;100255.19;5278776;27;19998;-68
2024/04/16 10:30:06;;;;;;;28.98;8.07;;;10.70;99.90;;;10.95;100.00;100302.47;5279081;27;20078;-68